createdAt,value
2022-12-29T00:00:10.779Z,3.60
2022-12-29T00:02:41.512Z,2.97
2022-12-29T00:05:08.580Z,4.78
2022-12-29T00:07:35.465Z,5.05
2022-12-29T00:10:02.381Z,4.90
2022-12-29T00:12:49.272Z,5.03
2022-12-29T00:15:34.755Z,3.93
2022-12-29T00:18:01.635Z,3.42
2022-12-29T00:20:46.852Z,3.70
2022-12-29T00:23:32.012Z,5.00
2022-12-29T00:26:17.710Z,4.20
2022-12-29T00:29:03.491Z,3.83
2022-12-29T00:31:48.740Z,3.30
2022-12-29T00:34:34.616Z,2.70
2022-12-29T00:37:02.425Z,2.63
2022-12-29T00:39:47.699Z,2.80
2022-12-29T00:42:32.896Z,3.80
2022-12-29T00:44:59.634Z,3.45
2022-12-29T00:47:26.527Z,3.65
2022-12-29T00:49:53.305Z,3.17
2022-12-29T00:52:20.073Z,4.70
2022-12-29T00:54:46.994Z,2.40
2022-12-29T00:57:14.038Z,2.83
2022-12-29T00:59:42.608Z,2.80
2022-12-29T01:02:10.877Z,4.38
2022-12-29T01:04:38.291Z,5.50
2022-12-29T01:07:05.491Z,5.60
2022-12-29T01:09:51.284Z,5.60
2022-12-29T01:12:38.319Z,5.90
2022-12-29T01:15:05.759Z,5.43
2022-12-29T01:17:32.520Z,6.13
2022-12-29T01:19:59.372Z,6.97
2022-12-29T01:22:26.241Z,7.13
2022-12-29T01:24:53.030Z,6.88
2022-12-29T01:27:19.835Z,7.07
2022-12-29T01:29:46.702Z,7.32
2022-12-29T01:32:13.550Z,7.90
2022-12-29T01:34:41.602Z,7.22
2022-12-29T01:37:08.403Z,7.72
2022-12-29T01:39:35.179Z,7.10
2022-12-29T01:42:01.947Z,7.72
2022-12-29T01:45:04.048Z,8.10
2022-12-29T01:47:39.639Z,7.78
2022-12-29T01:50:13.842Z,7.50
2022-12-29T01:52:48.576Z,8.32
2022-12-29T01:55:15.927Z,9.30
2022-12-29T01:57:51.764Z,8.37
2022-12-29T02:00:18.583Z,8.90
2022-12-29T02:02:52.634Z,8.48
2022-12-29T02:05:34.868Z,8.38
2022-12-29T02:08:02.579Z,8.52
2022-12-29T02:10:32.866Z,8.67
2022-12-29T02:13:00.782Z,8.15
2022-12-29T02:16:10.554Z,7.60
2022-12-29T02:18:47.915Z,8.05
2022-12-29T02:21:47.743Z,8.40
2022-12-29T02:24:32.396Z,6.70
2022-12-29T02:27:30.146Z,6.38
2022-12-29T02:30:08.700Z,6.50
2022-12-29T02:33:01.036Z,6.70
2022-12-29T02:35:38.863Z,4.97
2022-12-29T02:38:24.205Z,4.20
2022-12-29T02:41:03.005Z,2.92
2022-12-29T02:43:35.865Z,2.85
2022-12-29T02:46:32.284Z,2.55
2022-12-29T02:49:11.904Z,2.38
2022-12-29T02:51:47.824Z,2.07
2022-12-29T02:54:36.062Z,3.22
2022-12-29T02:57:03.147Z,3.40
2022-12-29T02:59:30.287Z,4.03
2022-12-29T03:02:22.079Z,3.20
2022-12-29T03:04:57.605Z,4.67
2022-12-29T03:07:34.269Z,4.70
2022-12-29T03:10:26.213Z,4.50
2022-12-29T03:13:19.369Z,4.00
2022-12-29T03:16:05.121Z,4.25
2022-12-29T03:19:02.615Z,4.77
2022-12-29T03:22:04.145Z,4.32
2022-12-29T03:24:41.872Z,5.03
2022-12-29T03:27:14.305Z,5.13
2022-12-29T03:29:46.035Z,5.10
2022-12-29T03:32:15.255Z,5.40
2022-12-29T03:34:42.628Z,5.35
2022-12-29T03:37:15.195Z,5.50
2022-12-29T03:39:42.826Z,5.75
2022-12-29T03:42:15.390Z,6.05
2022-12-29T03:44:45.026Z,4.50
2022-12-29T03:47:15.117Z,5.82
2022-12-29T03:49:42.915Z,5.90
2022-12-29T03:52:09.801Z,5.22
2022-12-29T03:54:42.790Z,5.30
2022-12-29T03:57:11.155Z,6.10
2022-12-29T03:59:48.120Z,6.45
2022-12-29T04:02:15.098Z,7.40
2022-12-29T04:04:42.298Z,6.45
2022-12-29T04:07:09.736Z,7.20
2022-12-29T04:09:36.697Z,7.80
2022-12-29T04:12:03.964Z,7.53
2022-12-29T04:14:30.834Z,8.35
2022-12-29T04:16:57.728Z,7.55
2022-12-29T04:19:24.582Z,7.45
2022-12-29T04:21:51.504Z,8.20
2022-12-29T04:24:18.801Z,7.57
2022-12-29T04:26:46.015Z,8.50
2022-12-29T04:29:30.223Z,8.52
2022-12-29T04:32:19.226Z,7.95
2022-12-29T04:34:49.648Z,8.30
2022-12-29T04:37:16.415Z,8.32
2022-12-29T04:39:43.336Z,8.93
2022-12-29T04:42:10.139Z,9.35
2022-12-29T04:44:42.997Z,10.18
2022-12-29T04:47:15.719Z,9.33
2022-12-29T04:50:24.565Z,11.27
2022-12-29T04:52:56.043Z,12.27
2022-12-29T04:55:23.037Z,13.02
2022-12-29T04:57:50.496Z,12.30
2022-12-29T05:00:19.733Z,13.73
2022-12-29T05:02:47.594Z,13.18
2022-12-29T05:05:15.292Z,14.32
2022-12-29T05:07:46.512Z,14.75
2022-12-29T05:10:13.390Z,14.32
2022-12-29T05:12:41.617Z,13.83
2022-12-29T05:15:09.722Z,13.65
2022-12-29T05:17:37.078Z,14.50
2022-12-29T05:20:06.282Z,12.63
2022-12-29T05:22:34.034Z,13.77
2022-12-29T05:25:00.948Z,12.83
2022-12-29T05:27:28.804Z,14.05
2022-12-29T05:30:06.782Z,14.38
2022-12-29T05:32:34.775Z,13.43
2022-12-29T05:35:01.744Z,12.40
2022-12-29T05:37:29.554Z,12.13
2022-12-29T05:39:56.477Z,12.85
2022-12-29T05:42:23.433Z,12.52
2022-12-29T05:45:08.088Z,11.98
2022-12-29T05:47:51.071Z,11.82
2022-12-29T05:50:26.800Z,10.50
2022-12-29T05:53:08.980Z,10.60
2022-12-29T05:55:37.515Z,11.68
2022-12-29T05:58:04.534Z,11.27
2022-12-29T06:00:31.930Z,11.02
2022-12-29T06:02:59.763Z,11.23
2022-12-29T06:05:27.041Z,13.73
2022-12-29T06:07:53.756Z,12.27
2022-12-29T06:10:20.560Z,11.32
2022-12-29T06:12:53.078Z,14.20
2022-12-29T06:15:20.086Z,13.97
2022-12-29T06:17:49.222Z,16.65
2022-12-29T06:20:16.124Z,15.55
2022-12-29T06:22:44.508Z,15.35
2022-12-29T06:25:11.370Z,14.70
2022-12-29T06:27:40.803Z,12.80
2022-12-29T06:30:08.389Z,12.48
2022-12-29T06:32:35.303Z,12.30
2022-12-29T06:35:06.804Z,13.93
2022-12-29T06:37:37.131Z,13.98
2022-12-29T06:40:04.215Z,12.03
2022-12-29T06:42:42.905Z,13.02
2022-12-29T06:45:23.136Z,12.65
2022-12-29T06:47:50.039Z,10.88
2022-12-29T06:50:16.787Z,14.93
2022-12-29T06:52:44.073Z,10.77
2022-12-29T06:55:10.852Z,14.88
2022-12-29T06:57:37.803Z,13.50
2022-12-29T07:00:05.987Z,12.93
2022-12-29T07:02:32.956Z,11.45
2022-12-29T07:04:59.753Z,13.77
2022-12-29T07:07:26.458Z,11.73
2022-12-29T07:09:53.310Z,11.85
2022-12-29T07:12:20.191Z,14.65
2022-12-29T07:14:47.088Z,11.45
2022-12-29T07:17:13.901Z,13.27
2022-12-29T07:19:40.833Z,13.60
2022-12-29T07:22:07.641Z,13.65
2022-12-29T07:24:34.316Z,10.38
2022-12-29T07:27:01.045Z,12.82
2022-12-29T07:29:27.791Z,12.03
2022-12-29T07:31:54.624Z,10.60
2022-12-29T07:34:21.610Z,6.20
2022-12-29T07:36:48.566Z,4.57
2022-12-29T07:39:15.353Z,5.38
2022-12-29T07:41:42.097Z,2.40
2022-12-29T07:44:16.127Z,7.00
2022-12-29T07:46:53.976Z,8.65
2022-12-29T07:49:23.832Z,6.90
2022-12-29T07:51:50.615Z,9.35
2022-12-29T07:54:19.338Z,8.43
2022-12-29T07:56:47.122Z,6.15
2022-12-29T07:59:13.844Z,8.40
2022-12-29T08:01:40.727Z,10.40
2022-12-29T08:04:07.644Z,11.50
2022-12-29T08:06:34.935Z,11.57
2022-12-29T08:09:09.817Z,10.27
2022-12-29T08:11:41.350Z,10.18
2022-12-29T08:14:08.317Z,9.27
2022-12-29T08:16:35.310Z,9.98
2022-12-29T08:19:02.759Z,8.87
2022-12-29T08:21:29.847Z,4.00
2022-12-29T08:23:56.939Z,8.43
2022-12-29T08:26:23.665Z,10.85
2022-12-29T08:28:54.158Z,11.52
2022-12-29T08:31:21.014Z,12.17
2022-12-29T08:33:47.815Z,13.07
2022-12-29T08:36:14.765Z,12.23
2022-12-29T08:38:41.478Z,13.07
2022-12-29T08:41:08.358Z,11.45
2022-12-29T08:43:35.069Z,12.07
2022-12-29T08:46:01.958Z,12.60
2022-12-29T08:48:28.886Z,12.40
2022-12-29T08:50:55.718Z,11.43
2022-12-29T08:53:22.567Z,12.13
2022-12-29T08:56:04.045Z,12.63
2022-12-29T08:58:38.827Z,12.18
2022-12-29T09:01:05.737Z,13.65
2022-12-29T09:06:20.301Z,11.15
2022-12-29T09:08:47.111Z,12.20
2022-12-29T09:11:18.408Z,12.10
2022-12-29T09:13:45.411Z,12.57
2022-12-29T09:16:12.632Z,12.52
2022-12-29T09:18:40.651Z,12.50
2022-12-29T09:21:08.383Z,11.98
2022-12-29T09:23:35.492Z,12.02
2022-12-29T09:26:02.919Z,12.32
2022-12-29T09:28:30.416Z,12.07
2022-12-29T09:30:58.353Z,13.15
2022-12-29T09:33:25.432Z,11.98
2022-12-29T09:35:54.712Z,11.50
2022-12-29T09:38:22.004Z,11.93
2022-12-29T09:40:57.050Z,12.52
2022-12-29T09:43:55.003Z,12.20
2022-12-29T09:46:28.146Z,12.77
2022-12-29T09:49:34.505Z,12.50
2022-12-29T09:52:06.125Z,11.55
2022-12-29T09:54:53.733Z,11.32
2022-12-29T09:57:39.113Z,11.07
2022-12-29T10:00:14.520Z,10.10
2022-12-29T10:02:43.796Z,10.68
2022-12-29T10:05:34.314Z,10.65
2022-12-29T10:08:29.214Z,10.35
2022-12-29T10:11:25.203Z,10.52
2022-12-29T10:14:15.937Z,10.80
2022-12-29T10:17:11.874Z,10.32
2022-12-29T10:20:06.163Z,9.98
2022-12-29T10:22:35.533Z,9.77
2022-12-29T10:25:09.990Z,10.40
2022-12-29T10:27:37.235Z,10.23
2022-12-29T10:30:04.817Z,9.52
2022-12-29T10:32:39.523Z,9.65
2022-12-29T10:35:32.174Z,9.73
2022-12-29T10:38:28.775Z,8.98
2022-12-29T10:41:04.328Z,9.93
2022-12-29T10:43:42.142Z,8.93
2022-12-29T10:46:19.683Z,9.25
2022-12-29T10:48:48.488Z,8.52
2022-12-29T10:51:28.801Z,8.77
2022-12-29T10:54:05.970Z,9.13
2022-12-29T10:56:40.519Z,9.25
2022-12-29T10:59:21.485Z,8.85
2022-12-29T11:02:11.513Z,8.40
2022-12-29T11:04:43.923Z,8.32
2022-12-29T11:07:16.135Z,8.05
2022-12-29T11:09:44.887Z,8.13
2022-12-29T11:12:27.940Z,7.93
2022-12-29T11:15:16.607Z,8.00
2022-12-29T11:17:54.517Z,8.15
2022-12-29T11:20:36.494Z,7.53
2022-12-29T11:23:05.486Z,7.50
2022-12-29T11:25:32.541Z,7.50
2022-12-29T11:28:16.058Z,7.45
2022-12-29T11:30:43.519Z,7.28
2022-12-29T11:33:11.013Z,7.40
2022-12-29T11:35:42.156Z,7.75
2022-12-29T11:38:35.705Z,7.47
2022-12-29T11:41:04.398Z,7.35
2022-12-29T11:43:38.959Z,6.93
2022-12-29T11:46:06.870Z,6.60
2022-12-29T11:48:40.396Z,6.57
2022-12-29T11:51:08.788Z,6.00
2022-12-29T11:53:45.684Z,6.03
2022-12-29T11:56:16.377Z,5.63
2022-12-29T11:58:43.706Z,6.20
2022-12-29T12:01:37.226Z,5.70
2022-12-29T12:04:14.405Z,5.57
2022-12-29T12:06:58.308Z,6.03
2022-12-29T12:09:35.278Z,5.70
2022-12-29T12:12:04.437Z,5.57
2022-12-29T12:14:37.417Z,5.20
2022-12-29T12:17:38.252Z,5.55
2022-12-29T12:20:33.095Z,6.88
2022-12-29T12:23:24.022Z,6.60
2022-12-29T12:26:05.430Z,6.60
2022-12-29T12:28:44.331Z,6.53
2022-12-29T12:31:27.510Z,6.03
2022-12-29T12:34:03.838Z,5.68
2022-12-29T12:36:44.217Z,5.95
2022-12-29T12:39:46.053Z,6.47
2022-12-29T12:42:31.105Z,5.35
2022-12-29T12:45:25.655Z,5.63
2022-12-29T12:48:22.998Z,5.45
2022-12-29T12:51:21.350Z,5.97
2022-12-29T12:54:07.677Z,5.18
2022-12-29T12:56:40.144Z,5.85
2022-12-29T12:59:54.854Z,5.57
2022-12-29T13:02:42.939Z,5.38
2022-12-29T13:05:27.324Z,5.60
2022-12-29T13:07:56.910Z,5.50
2022-12-29T13:10:30.676Z,5.18
2022-12-29T13:13:12.454Z,5.80
2022-12-29T13:16:08.428Z,6.15
2022-12-29T13:18:53.779Z,5.13
2022-12-29T13:21:56.171Z,5.68
2022-12-29T13:24:52.795Z,5.18
2022-12-29T13:27:44.614Z,5.63
2022-12-29T13:30:19.104Z,5.60
2022-12-29T13:32:45.809Z,5.65
2022-12-29T13:35:23.279Z,6.15
2022-12-29T13:38:08.787Z,5.65
2022-12-29T13:40:41.003Z,5.85
2022-12-29T13:43:09.419Z,5.10
2022-12-29T13:45:36.877Z,5.28
2022-12-29T13:48:24.611Z,4.90
2022-12-29T13:50:59.620Z,5.47
2022-12-29T13:53:44.096Z,5.43
2022-12-29T13:56:36.857Z,5.70
2022-12-29T13:59:41.726Z,5.93
2022-12-29T14:02:53.376Z,5.40
2022-12-29T14:05:23.245Z,4.95
2022-12-29T14:07:59.400Z,5.45
2022-12-29T14:10:29.773Z,5.15
2022-12-29T14:13:18.007Z,4.70
2022-12-29T14:15:51.517Z,4.40
2022-12-29T14:18:22.332Z,4.20
2022-12-29T14:20:57.834Z,4.50
2022-12-29T14:23:45.154Z,4.18
2022-12-29T14:26:35.432Z,4.18
2022-12-29T14:29:30.080Z,4.20
2022-12-29T14:31:56.953Z,4.03
2022-12-29T14:34:30.434Z,4.45
2022-12-29T14:37:03.160Z,4.47
2022-12-29T14:39:42.270Z,4.85
2022-12-29T14:42:14.603Z,4.53
2022-12-29T14:44:53.466Z,4.07
2022-12-29T14:47:32.507Z,4.32
2022-12-29T14:50:22.229Z,4.90
2022-12-29T14:53:02.527Z,5.10
2022-12-29T14:55:50.959Z,4.85
2022-12-29T14:58:23.280Z,5.05
2022-12-29T15:00:50.375Z,6.00
2022-12-29T15:03:51.692Z,4.90
2022-12-29T15:06:23.353Z,5.88
2022-12-29T15:08:53.583Z,6.68
2022-12-29T15:11:23.142Z,7.00
2022-12-29T15:13:50.371Z,6.82
2022-12-29T15:16:33.751Z,6.60
2022-12-29T15:19:00.708Z,6.70
2022-12-29T15:21:34.623Z,6.78
2022-12-29T15:24:01.709Z,6.68
2022-12-29T15:26:42.991Z,6.28
2022-12-29T15:29:39.961Z,6.72
2022-12-29T15:32:16.116Z,6.55
2022-12-29T15:34:44.633Z,6.60
2022-12-29T15:37:19.720Z,7.93
2022-12-29T15:39:46.794Z,8.55
2022-12-29T15:42:28.414Z,5.70
2022-12-29T15:45:09.299Z,6.70
2022-12-29T15:47:36.990Z,6.78
2022-12-29T15:50:14.120Z,7.60
2022-12-29T15:52:41.266Z,8.95
2022-12-29T15:55:21.651Z,8.60
2022-12-29T15:57:48.321Z,7.32
2022-12-29T16:00:47.305Z,6.57
2022-12-29T16:03:16.263Z,6.30
2022-12-29T16:05:51.372Z,5.80
2022-12-29T16:08:34.816Z,5.47
2022-12-29T16:11:03.967Z,5.97
2022-12-29T16:13:39.610Z,7.35
2022-12-29T16:16:23.135Z,7.55
2022-12-29T16:18:57.371Z,6.50
2022-12-29T16:21:33.216Z,6.30
2022-12-29T16:24:04.085Z,6.63
2022-12-29T16:26:30.948Z,8.30
2022-12-29T16:29:00.559Z,8.30
2022-12-29T16:31:37.823Z,7.13
2022-12-29T16:34:24.490Z,6.63
2022-12-29T16:36:58.431Z,8.82
2022-12-29T16:39:29.989Z,8.30
2022-12-29T16:41:57.439Z,6.53
2022-12-29T16:44:25.755Z,6.30
2022-12-29T16:47:03.238Z,6.60
2022-12-29T16:49:32.320Z,6.70
2022-12-29T16:51:59.150Z,6.13
2022-12-29T16:54:34.268Z,6.25
2022-12-29T16:57:01.302Z,6.75
2022-12-29T16:59:37.347Z,7.35
2022-12-29T17:02:25.489Z,7.53
2022-12-29T17:04:53.947Z,7.53
2022-12-29T17:07:23.804Z,7.63
2022-12-29T17:09:58.341Z,7.88
2022-12-29T17:12:28.338Z,7.32
2022-12-29T17:14:58.558Z,7.47
2022-12-29T17:17:35.415Z,7.53
2022-12-29T17:20:26.089Z,8.00
2022-12-29T17:22:57.761Z,8.13
2022-12-29T17:25:32.014Z,8.60
2022-12-29T17:28:11.392Z,8.55
2022-12-29T17:30:40.398Z,9.18
2022-12-29T17:33:14.341Z,18.58
2022-12-29T17:35:41.567Z,14.55
2022-12-29T17:38:31.670Z,12.65
2022-12-29T17:40:59.521Z,11.30
2022-12-29T17:43:33.086Z,11.60
2022-12-29T17:46:05.607Z,10.77
2022-12-29T17:48:32.284Z,11.50
2022-12-29T17:50:59.653Z,10.85
2022-12-29T17:53:29.975Z,12.65
2022-12-29T17:55:56.890Z,11.98
2022-12-29T17:58:28.842Z,11.35
2022-12-29T18:00:58.399Z,12.98
2022-12-29T18:03:27.159Z,13.32
2022-12-29T18:05:54.352Z,15.02
2022-12-29T18:08:21.893Z,20.17
2022-12-29T18:10:49.053Z,17.10
2022-12-29T18:13:27.202Z,15.35
2022-12-29T18:15:56.589Z,17.52
2022-12-29T18:18:25.667Z,16.08
2022-12-29T18:20:58.972Z,13.88
2022-12-29T18:23:29.079Z,11.88
2022-12-29T18:26:00.514Z,10.95
2022-12-29T18:28:28.146Z,10.77
2022-12-29T18:30:57.492Z,10.27
2022-12-29T18:33:26.670Z,11.43
2022-12-29T18:36:03.998Z,10.40
2022-12-29T18:38:31.361Z,10.48
2022-12-29T18:40:59.168Z,10.20
2022-12-29T18:43:26.073Z,10.27
2022-12-29T18:45:52.927Z,10.23
2022-12-29T18:48:20.719Z,10.25
2022-12-29T18:50:53.280Z,11.20
2022-12-29T18:53:22.655Z,10.65
2022-12-29T18:55:49.826Z,10.88
2022-12-29T18:58:16.665Z,10.68
2022-12-29T19:00:43.861Z,11.57
2022-12-29T19:03:15.783Z,11.82
2022-12-29T19:05:44.662Z,11.25
2022-12-29T19:08:12.397Z,11.45
2022-12-29T19:10:40.025Z,11.82
2022-12-29T19:13:07.198Z,11.73
2022-12-29T19:15:37.976Z,12.32
2022-12-29T19:20:56.815Z,12.63
2022-12-29T19:23:25.495Z,12.68
2022-12-29T19:25:53.597Z,11.57
2022-12-29T19:28:26.121Z,13.18
2022-12-29T19:30:57.364Z,12.68
2022-12-29T19:33:24.743Z,12.38
2022-12-29T19:35:52.216Z,13.13
2022-12-29T19:38:19.768Z,12.98
2022-12-29T19:40:49.480Z,13.13
2022-12-29T19:43:17.539Z,12.27
2022-12-29T19:45:45.593Z,14.07
2022-12-29T19:48:15.018Z,13.73
2022-12-29T19:50:42.047Z,18.48
2022-12-29T19:53:08.959Z,14.05
2022-12-29T19:55:35.648Z,13.57
2022-12-29T19:58:02.431Z,13.10
2022-12-29T20:00:29.501Z,12.48
2022-12-29T20:02:56.395Z,13.80
2022-12-29T20:05:23.691Z,13.13
2022-12-29T20:07:50.429Z,13.20
2022-12-29T20:10:17.251Z,13.27
2022-12-29T20:12:44.042Z,12.75
2022-12-29T20:15:11.299Z,12.68
2022-12-29T20:18:11.579Z,12.18
2022-12-29T20:20:24.788Z,13.45
2022-12-29T20:22:51.561Z,13.82
2022-12-29T20:25:44.322Z,12.25
2022-12-29T20:28:05.152Z,12.57
2022-12-29T20:30:31.973Z,14.20
2022-12-29T20:33:01.113Z,13.85
2022-12-29T20:35:31.407Z,14.50
2022-12-29T20:37:58.306Z,13.27
2022-12-29T20:40:25.344Z,15.30
2022-12-29T20:42:52.100Z,15.23
2022-12-29T20:45:18.939Z,14.15
2022-12-29T20:47:45.733Z,14.68
2022-12-29T20:50:12.510Z,14.83
2022-12-29T20:52:39.256Z,14.52
2022-12-29T20:55:06.421Z,16.00
2022-12-29T20:57:57.241Z,15.27
2022-12-29T21:00:22.536Z,16.33
2022-12-29T21:02:50.215Z,16.40
2022-12-29T21:05:25.638Z,17.80
2022-12-29T21:07:54.062Z,16.98
2022-12-29T21:10:21.686Z,17.35
2022-12-29T21:12:48.750Z,17.65
2022-12-29T21:15:15.973Z,17.20
2022-12-29T21:17:44.328Z,17.70
2022-12-29T21:20:20.143Z,16.13
2022-12-29T21:22:48.117Z,16.08
2022-12-29T21:25:14.874Z,18.20
2022-12-29T21:27:44.497Z,17.43
2022-12-29T21:30:12.698Z,17.33
2022-12-29T21:32:40.116Z,19.40
2022-12-29T21:35:08.392Z,20.23
2022-12-29T21:37:36.051Z,19.35
2022-12-29T21:40:04.242Z,17.40
2022-12-29T21:42:31.057Z,16.75
2022-12-29T21:45:20.482Z,16.95
2022-12-29T21:48:06.628Z,17.05
2022-12-29T21:50:33.564Z,17.15
2022-12-29T21:53:00.444Z,17.17
2022-12-29T21:55:27.253Z,17.02
2022-12-29T21:58:12.764Z,18.77
2022-12-29T22:00:58.147Z,17.20
2022-12-29T22:03:43.400Z,17.38
2022-12-29T22:06:29.816Z,18.13
2022-12-29T22:09:14.951Z,17.75
2022-12-29T22:12:00.270Z,17.08
2022-12-29T22:14:27.021Z,18.23
2022-12-29T22:16:53.880Z,17.90
2022-12-29T22:19:20.780Z,17.17
2022-12-29T22:21:47.623Z,17.48
2022-12-29T22:24:14.390Z,17.95
2022-12-29T22:26:41.189Z,18.23
2022-12-29T22:29:08.028Z,17.95
2022-12-29T22:31:35.030Z,18.85
2022-12-29T22:34:03.537Z,18.38
2022-12-29T22:36:31.340Z,19.42
2022-12-29T22:38:58.145Z,18.23
2022-12-29T22:41:25.218Z,18.92
2022-12-29T22:43:52.043Z,18.88
2022-12-29T22:46:18.906Z,18.90
2022-12-29T22:48:45.781Z,19.52
2022-12-29T22:51:12.512Z,18.40
2022-12-29T22:53:41.026Z,17.10
2022-12-29T22:56:10.652Z,19.23
2022-12-29T22:58:41.714Z,18.23
2022-12-29T23:01:09.909Z,17.45
2022-12-29T23:03:37.211Z,18.02
2022-12-29T23:06:05.695Z,17.88
2022-12-29T23:08:37.767Z,18.33
2022-12-29T23:11:07.793Z,17.23
2022-12-29T23:13:35.217Z,17.55
2022-12-29T23:16:02.327Z,16.52
2022-12-29T23:18:29.648Z,17.83
2022-12-29T23:20:56.695Z,17.60
2022-12-29T23:23:48.385Z,17.00
2022-12-29T23:26:15.899Z,15.77
2022-12-29T23:28:42.746Z,17.33
2022-12-29T23:31:10.003Z,17.05
2022-12-29T23:33:36.985Z,17.47
2022-12-29T23:36:04.531Z,18.60
2022-12-29T23:38:31.321Z,19.42
2022-12-29T23:40:58.144Z,18.58
2022-12-29T23:43:25.275Z,19.30
2022-12-29T23:45:52.179Z,16.87
2022-12-29T23:48:19.765Z,18.27
2022-12-29T23:50:46.785Z,17.65
2022-12-29T23:53:13.495Z,17.98
2022-12-29T23:55:44.016Z,18.00
2022-12-29T23:58:10.983Z,19.23
